Time;durP1;ratioP1;P1;durP2;ratioP2;P2;SDS_P1;SDS_P2;PMS_P1;PMS_P2;Temp;Humidity;BMP_temperature;BMP_pressure;BME280_temperature;BME280_humidity;BME280_pressure;Samples;Min_cycle;Max_cycle;Signal;HPM_P1;HPM_P2
2021/01/24 00:01:35;;;;;;;12.87;6.57;;;2.50;99.90;;;;;;4070567;29;20476;-59
2021/01/24 00:03:36;;;;;;;13.13;7.33;;;2.50;99.90;;;;;;4071788;29;20478;-58
2021/01/24 00:05:38;;;;;;;14.37;7.60;;;2.50;99.90;;;;;;4071110;29;20508;-59
2021/01/24 00:07:39;;;;;;;13.63;7.07;;;2.50;99.90;;;;;;4072168;29;20511;-59
2021/01/24 00:09:41;;;;;;;12.53;6.53;;;2.50;99.90;;;;;;4070185;29;20484;-59
2021/01/24 00:11:42;;;;;;;12.93;6.87;;;2.50;99.90;;;;;;4071572;29;21209;-58
2021/01/24 00:13:44;;;;;;;13.07;7.20;;;2.50;99.90;;;;;;4069241;29;20504;-58
2021/01/24 00:15:45;;;;;;;14.43;7.93;;;2.50;99.90;;;;;;4071213;29;20517;-58
2021/01/24 00:17:47;;;;;;;15.47;7.50;;;2.50;99.90;;;;;;4071614;29;20496;-58
2021/01/24 00:19:48;;;;;;;12.23;6.63;;;2.50;99.90;;;;;;4070676;29;20477;-58
2021/01/24 00:21:50;;;;;;;12.63;7.07;;;2.50;99.90;;;;;;4071570;29;20882;-57
2021/01/24 00:23:51;;;;;;;13.17;6.80;;;2.50;99.90;;;;;;4071466;29;20488;-57
2021/01/24 00:25:52;;;;;;;13.43;6.70;;;2.50;99.90;;;;;;4072991;29;20485;-57
2021/01/24 00:27:54;;;;;;;12.53;6.90;;;2.50;99.90;;;;;;4071842;29;20575;-58
2021/01/24 00:29:56;;;;;;;11.70;6.77;;;2.50;99.90;;;;;;4070147;29;20489;-58
2021/01/24 00:31:57;;;;;;;12.90;6.70;;;2.50;99.90;;;;;;4071800;29;20506;-58
2021/01/24 00:33:58;;;;;;;10.37;6.30;;;2.50;99.90;;;;;;4071247;29;20480;-59
2021/01/24 00:36:00;;;;;;;13.00;6.80;;;2.50;99.90;;;;;;4072447;29;20480;-59
2021/01/24 00:38:01;;;;;;;12.57;7.00;;;2.50;99.90;;;;;;4070412;29;20483;-59
2021/01/24 00:40:05;;;;;;;14.53;7.57;;;2.50;99.90;;;;;;4072277;29;20483;-56
2021/01/24 00:42:07;;;;;;;14.80;7.67;;;2.50;99.90;;;;;;4071648;29;20501;-56
2021/01/24 00:44:08;;;;;;;14.07;7.67;;;2.50;99.90;;;;;;4070329;29;22482;-59
2021/01/24 00:46:10;;;;;;;13.40;7.40;;;2.50;99.90;;;;;;4073457;29;20469;-59
2021/01/24 00:48:12;;;;;;;13.97;7.57;;;2.50;99.90;;;;;;4072956;29;21125;-59
2021/01/24 00:50:14;;;;;;;15.93;8.10;;;2.50;99.90;;;;;;4072273;29;20473;-59
2021/01/24 00:52:15;;;;;;;15.40;7.67;;;2.40;99.90;;;;;;4069499;29;20492;-60
2021/01/24 00:54:16;;;;;;;16.17;8.27;;;2.40;99.90;;;;;;4073023;29;20478;-59
2021/01/24 00:56:17;;;;;;;17.20;8.20;;;2.40;99.90;;;;;;4072315;29;20580;-59
2021/01/24 00:58:19;;;;;;;14.17;7.40;;;2.40;99.90;;;;;;4072655;29;21022;-64
2021/01/24 01:00:21;;;;;;;16.30;7.63;;;2.30;99.90;;;;;;4072825;29;20479;-59
2021/01/24 01:02:24;;;;;;;15.67;8.07;;;2.30;99.90;;;;;;4074079;29;20571;-59
2021/01/24 01:04:25;;;;;;;13.33;7.40;;;2.30;99.90;;;;;;4072574;29;20473;-59
2021/01/24 01:06:27;;;;;;;15.83;8.33;;;2.20;99.90;;;;;;4071433;29;21273;-59
2021/01/24 01:08:28;;;;;;;15.33;8.03;;;2.20;99.90;;;;;;4072385;29;20481;-59
2021/01/24 01:10:29;;;;;;;17.53;8.50;;;2.20;99.90;;;;;;4075452;29;20458;-56
2021/01/24 01:12:31;;;;;;;14.10;7.57;;;2.20;99.90;;;;;;4071541;29;20486;-55
2021/01/24 01:14:32;;;;;;;15.47;7.47;;;2.10;99.90;;;;;;4073152;29;20489;-55
2021/01/24 01:16:34;;;;;;;17.43;8.67;;;2.10;99.90;;;;;;4071840;29;21116;-56
2021/01/24 01:18:36;;;;;;;18.03;8.50;;;2.10;99.90;;;;;;4071935;29;20485;-55
2021/01/24 01:20:37;;;;;;;19.90;9.40;;;2.00;99.90;;;;;;4071523;29;20478;-55
2021/01/24 01:22:38;;;;;;;20.63;9.67;;;1.90;99.90;;;;;;4071992;29;20504;-64
2021/01/24 01:24:40;;;;;;;17.07;8.40;;;1.80;99.90;;;;;;4074393;29;20498;-56
2021/01/24 01:26:41;;;;;;;17.93;8.90;;;1.70;99.90;;;;;;4071803;29;20483;-59
2021/01/24 01:28:42;;;;;;;17.10;8.30;;;1.70;99.90;;;;;;4071936;29;20480;-54
2021/01/24 01:30:44;;;;;;;21.33;9.73;;;1.70;99.90;;;;;;4072685;29;20536;-55
2021/01/24 01:32:45;;;;;;;19.60;8.93;;;1.70;99.90;;;;;;4072095;29;20474;-55
2021/01/24 01:34:47;;;;;;;17.17;8.63;;;1.70;99.90;;;;;;4073323;29;20816;-54
2021/01/24 01:36:48;;;;;;;17.67;8.73;;;1.70;99.90;;;;;;4071449;29;20488;-54
2021/01/24 01:38:50;;;;;;;13.60;7.27;;;1.60;99.90;;;;;;4070806;29;20479;-57
2021/01/24 01:40:51;;;;;;;17.83;8.43;;;1.60;99.90;;;;;;4074229;29;20476;-54
2021/01/24 01:42:52;;;;;;;18.93;8.67;;;1.60;99.90;;;;;;4076339;29;20562;-55
2021/01/24 01:44:54;;;;;;;16.93;8.27;;;1.60;99.90;;;;;;4076385;29;20483;-54
2021/01/24 01:46:56;;;;;;;20.70;9.33;;;1.60;99.90;;;;;;4076648;29;20472;-54
2021/01/24 01:48:57;;;;;;;17.23;8.87;;;1.60;99.90;;;;;;4075751;29;20484;-54
2021/01/24 01:51:00;;;;;;;17.00;8.37;;;1.60;99.90;;;;;;4075036;29;20479;-54
2021/01/24 01:53:01;;;;;;;16.43;7.80;;;1.60;99.90;;;;;;4075629;29;20519;-54
2021/01/24 01:55:03;;;;;;;17.27;8.40;;;1.60;99.90;;;;;;4075374;29;20475;-55
2021/01/24 01:57:05;;;;;;;19.20;7.80;;;1.60;99.90;;;;;;4074239;29;20475;-54
2021/01/24 01:59:07;;;;;;;18.97;8.37;;;1.60;99.90;;;;;;4076058;29;20982;-55
2021/01/24 02:01:15;;;;;;;17.37;8.67;;;1.60;99.90;;;;;;4075682;29;20540;-54
2021/01/24 02:03:34;;;;;;;18.23;8.17;;;1.50;99.90;;;;;;4075132;29;20498;-54
2021/01/24 02:05:43;;;;;;;16.17;8.20;;;1.50;99.90;;;;;;4076451;29;20504;-55
2021/01/24 02:07:53;;;;;;;17.17;8.07;;;1.50;99.90;;;;;;4074119;29;20473;-55
2021/01/24 02:10:01;;;;;;;15.67;8.00;;;1.50;99.90;;;;;;4074396;29;20482;-54
2021/01/24 02:12:12;;;;;;;15.53;7.53;;;1.50;99.90;;;;;;4075814;29;20479;-55
2021/01/24 02:14:23;;;;;;;16.63;7.13;;;1.50;99.90;;;;;;4074628;29;20541;-55
2021/01/24 02:16:25;;;;;;;17.47;7.93;;;1.50;99.90;;;;;;4075038;29;20485;-60
2021/01/24 02:18:30;;;;;;;14.37;6.93;;;1.50;99.90;;;;;;4074628;29;20618;-54
2021/01/24 02:20:40;;;;;;;17.43;8.10;;;1.50;99.90;;;;;;4072253;29;20828;-54
2021/01/24 02:22:45;;;;;;;15.80;7.63;;;1.50;99.90;;;;;;4072716;29;20498;-54
2021/01/24 02:24:54;;;;;;;16.83;7.30;;;1.40;99.90;;;;;;4073094;29;20485;-55
2021/01/24 02:27:03;;;;;;;15.77;7.77;;;1.50;99.90;;;;;;4073011;29;20484;-55
2021/01/24 02:29:13;;;;;;;18.20;8.10;;;1.40;99.90;;;;;;4073882;29;20479;-54
2021/01/24 02:31:17;;;;;;;19.50;8.70;;;1.40;99.90;;;;;;4076304;29;20528;-54
2021/01/24 02:33:22;;;;;;;17.33;8.30;;;1.40;99.90;;;;;;4073997;29;20822;-54
2021/01/24 02:35:28;;;;;;;20.47;9.03;;;1.40;99.90;;;;;;4074916;29;20491;-54
2021/01/24 02:37:32;;;;;;;18.47;8.63;;;1.40;99.90;;;;;;4073430;29;20474;-55
2021/01/24 02:39:34;;;;;;;17.30;8.47;;;1.40;99.90;;;;;;4075421;29;20827;-54
2021/01/24 02:41:36;;;;;;;18.77;8.80;;;1.30;99.90;;;;;;4075185;29;22552;-54
2021/01/24 02:43:42;;;;;;;20.03;8.83;;;1.30;99.90;;;;;;4076025;29;20479;-54
2021/01/24 02:45:44;;;;;;;23.17;10.27;;;1.30;99.90;;;;;;4073987;29;20536;-54
2021/01/24 02:47:48;;;;;;;22.77;10.73;;;1.30;99.90;;;;;;4074271;29;20889;-55
2021/01/24 02:49:49;;;;;;;22.03;10.17;;;1.30;99.90;;;;;;4074433;29;20485;-54
2021/01/24 02:51:52;;;;;;;24.00;10.13;;;1.30;99.90;;;;;;4074433;29;20478;-54
2021/01/24 02:53:55;;;;;;;21.47;9.20;;;1.20;99.90;;;;;;4074147;29;20494;-55
2021/01/24 02:55:56;;;;;;;22.93;9.57;;;1.20;99.90;;;;;;4074643;29;20472;-55
2021/01/24 02:57:58;;;;;;;22.70;9.17;;;1.20;99.90;;;;;;4073646;29;20478;-55
2021/01/24 03:00:00;;;;;;;18.70;8.93;;;1.20;99.90;;;;;;4075946;29;20471;-55
2021/01/24 03:02:01;;;;;;;19.77;9.33;;;1.20;99.90;;;;;;4073678;29;20516;-56
2021/01/24 03:04:03;;;;;;;18.43;8.50;;;1.20;99.90;;;;;;4073995;29;20550;-55
2021/01/24 03:06:05;;;;;;;19.87;8.73;;;1.30;99.90;;;;;;4072819;29;20503;-55
2021/01/24 03:08:07;;;;;;;19.07;9.03;;;1.20;99.90;;;;;;4073404;29;20920;-55
2021/01/24 03:10:09;;;;;;;19.13;8.60;;;1.20;99.90;;;;;;4073007;29;20835;-56
2021/01/24 03:12:13;;;;;;;18.03;8.80;;;1.20;99.90;;;;;;4074341;29;20468;-55
2021/01/24 03:14:19;;;;;;;18.03;8.37;;;1.20;99.90;;;;;;4074764;29;20490;-55
2021/01/24 03:16:20;;;;;;;18.57;8.20;;;1.20;99.90;;;;;;4073711;29;20473;-56
2021/01/24 03:18:25;;;;;;;20.37;9.30;;;1.20;99.90;;;;;;4074434;29;20482;-56
2021/01/24 03:20:30;;;;;;;20.50;9.23;;;1.20;99.90;;;;;;4072966;29;21013;-55
2021/01/24 03:22:33;;;;;;;23.80;10.40;;;1.10;99.90;;;;;;4074778;29;20505;-56
2021/01/24 03:24:36;;;;;;;21.07;9.40;;;1.10;99.90;;;;;;4073774;29;20490;-55
2021/01/24 03:26:37;;;;;;;22.27;9.07;;;1.10;99.90;;;;;;4073398;29;20486;-55
2021/01/24 03:28:39;;;;;;;23.00;10.37;;;1.00;99.90;;;;;;4073818;29;21045;-56
2021/01/24 03:30:40;;;;;;;28.63;11.20;;;1.00;99.90;;;;;;4072480;29;20552;-56
2021/01/24 03:32:42;;;;;;;21.97;10.17;;;1.00;99.90;;;;;;4074337;29;20471;-58
2021/01/24 03:34:43;;;;;;;23.30;10.23;;;1.00;99.90;;;;;;4073436;29;20479;-55
2021/01/24 03:36:46;;;;;;;24.17;10.87;;;1.00;99.90;;;;;;4074391;29;20483;-56
2021/01/24 03:38:47;;;;;;;20.03;9.53;;;1.00;99.90;;;;;;4074540;29;21030;-56
2021/01/24 03:40:49;;;;;;;23.47;10.47;;;1.00;99.90;;;;;;4074281;29;20482;-56
2021/01/24 03:42:50;;;;;;;20.43;9.23;;;1.00;99.90;;;;;;4074454;29;20496;-56
2021/01/24 03:44:51;;;;;;;20.03;9.23;;;1.00;99.90;;;;;;4073648;29;21171;-56
2021/01/24 03:46:52;;;;;;;21.60;8.80;;;1.10;99.90;;;;;;4074960;29;20539;-56
2021/01/24 03:48:54;;;;;;;17.00;8.20;;;1.10;99.90;;;;;;4074867;29;20481;-57
2021/01/24 03:50:55;;;;;;;17.50;7.73;;;1.10;99.90;;;;;;4073763;29;21210;-56
2021/01/24 03:52:57;;;;;;;19.87;8.93;;;1.10;99.90;;;;;;4072274;29;20474;-56
2021/01/24 03:54:59;;;;;;;20.17;8.73;;;1.10;99.90;;;;;;4075087;29;20505;-56
2021/01/24 03:57:00;;;;;;;22.13;10.17;;;1.10;99.90;;;;;;4075481;29;20548;-56
2021/01/24 03:59:01;;;;;;;19.80;9.53;;;1.10;99.90;;;;;;4073979;29;21960;-56
2021/01/24 04:01:03;;;;;;;22.17;10.23;;;1.00;99.90;;;;;;4072822;29;20481;-56
2021/01/24 04:03:04;;;;;;;27.00;11.43;;;1.10;99.90;;;;;;4073184;29;20495;-56
2021/01/24 04:05:06;;;;;;;18.57;8.93;;;1.00;99.90;;;;;;4071534;29;20475;-55
2021/01/24 04:07:08;;;;;;;14.47;7.10;;;1.00;99.90;;;;;;4074122;29;20557;-56
2021/01/24 04:09:10;;;;;;;10.53;5.37;;;1.00;99.90;;;;;;4073170;29;20473;-59
2021/01/24 04:11:11;;;;;;;7.57;3.77;;;1.10;99.90;;;;;;4074331;29;20485;-57
2021/01/24 04:13:12;;;;;;;6.53;3.23;;;1.00;99.90;;;;;;4075632;29;20470;-56
2021/01/24 04:15:15;;;;;;;4.37;2.53;;;1.00;99.90;;;;;;4074854;29;20529;-57
2021/01/24 04:17:17;;;;;;;4.10;2.43;;;1.10;99.90;;;;;;4071734;29;20476;-56
2021/01/24 04:19:18;;;;;;;3.73;2.17;;;1.10;99.90;;;;;;4073588;29;20470;-57
2021/01/24 04:21:19;;;;;;;4.60;2.00;;;1.10;99.90;;;;;;4073831;29;20499;-56
2021/01/24 04:23:21;;;;;;;2.63;1.60;;;1.10;99.90;;;;;;4073971;29;20590;-57
2021/01/24 04:25:23;;;;;;;2.90;1.40;;;1.10;99.90;;;;;;4071656;29;20487;-56
2021/01/24 04:27:25;;;;;;;2.00;1.00;;;1.10;99.90;;;;;;4073763;29;20522;-56
2021/01/24 04:29:26;;;;;;;1.17;1.00;;;1.10;99.90;;;;;;4073818;29;20506;-56
2021/01/24 04:31:28;;;;;;;1.20;1.10;;;1.10;99.90;;;;;;4072407;29;20475;-56
2021/01/24 04:33:29;;;;;;;1.30;1.00;;;1.10;99.90;;;;;;4073087;29;20496;-56
2021/01/24 04:35:30;;;;;;;1.77;1.03;;;1.10;99.90;;;;;;4072821;29;20512;-56
2021/01/24 04:37:32;;;;;;;3.23;1.17;;;1.10;99.90;;;;;;4073324;29;20868;-56
2021/01/24 04:39:33;;;;;;;1.63;0.93;;;1.10;99.90;;;;;;4071554;29;20482;-56
2021/01/24 04:41:37;;;;;;;1.53;0.90;;;1.10;99.90;;;;;;4073445;29;20482;-57
2021/01/24 04:43:38;;;;;;;0.70;0.70;;;1.10;99.90;;;;;;4071632;29;20498;-56
2021/01/24 04:45:40;;;;;;;0.87;0.80;;;1.10;99.90;;;;;;4072516;29;20524;-57
2021/01/24 04:47:44;;;;;;;1.33;0.67;;;1.00;99.90;;;;;;4072048;29;20851;-56
2021/01/24 04:49:46;;;;;;;0.70;0.60;;;1.00;99.90;;;;;;4072755;29;21066;-57
2021/01/24 04:51:48;;;;;;;0.80;0.70;;;0.90;99.90;;;;;;4071330;29;20700;-57
2021/01/24 04:53:51;;;;;;;0.60;0.60;;;0.90;99.90;;;;;;4071290;29;20506;-61
2021/01/24 04:55:53;;;;;;;0.80;0.70;;;0.80;99.90;;;;;;4074849;29;20490;-56
2021/01/24 04:57:57;;;;;;;1.13;0.80;;;0.80;99.90;;;;;;4074831;29;20480;-57
2021/01/24 04:59:59;;;;;;;1.00;0.87;;;0.80;99.90;;;;;;4074243;29;20832;-56
2021/01/24 05:02:01;;;;;;;1.37;0.70;;;0.70;99.90;;;;;;4072313;29;20648;-57
2021/01/24 05:04:03;;;;;;;0.80;0.70;;;0.70;99.90;;;;;;4071129;29;20484;-56
2021/01/24 05:06:04;;;;;;;1.00;0.90;;;0.60;99.90;;;;;;4073333;29;20529;-56
2021/01/24 05:08:09;;;;;;;0.83;0.83;;;0.60;99.90;;;;;;4072488;29;20502;-55
2021/01/24 05:10:15;;;;;;;0.80;0.80;;;0.60;99.90;;;;;;4071794;29;20479;-56
2021/01/24 05:12:16;;;;;;;2.40;0.97;;;0.60;99.90;;;;;;4073338;29;20481;-56
2021/01/24 05:14:20;;;;;;;1.00;0.80;;;0.60;99.90;;;;;;4071527;29;20965;-55
2021/01/24 05:16:23;;;;;;;0.80;0.80;;;0.60;99.90;;;;;;4072243;29;20465;-56
2021/01/24 05:18:24;;;;;;;0.70;0.70;;;0.60;99.90;;;;;;4071240;29;20856;-56
2021/01/24 05:20:28;;;;;;;0.83;0.80;;;0.60;99.90;;;;;;4072095;29;21103;-56
2021/01/24 05:22:29;;;;;;;0.80;0.70;;;0.50;99.90;;;;;;4071997;29;20489;-56
2021/01/24 05:24:31;;;;;;;1.33;0.70;;;0.60;99.90;;;;;;4072748;29;20474;-56
2021/01/24 05:26:33;;;;;;;0.93;0.80;;;0.50;99.90;;;;;;4073255;29;20486;-62
2021/01/24 05:28:34;;;;;;;0.77;0.60;;;0.50;99.90;;;;;;4070589;29;20467;-56
2021/01/24 05:30:36;;;;;;;4.40;0.70;;;0.50;99.90;;;;;;4073281;29;20812;-56
2021/01/24 05:32:42;;;;;;;0.53;0.53;;;0.50;99.90;;;;;;4072164;29;20734;-57
2021/01/24 05:34:48;;;;;;;0.63;0.47;;;0.50;99.90;;;;;;4072662;29;20530;-56
2021/01/24 05:36:50;;;;;;;0.83;0.60;;;0.60;99.90;;;;;;4071797;29;20486;-56
2021/01/24 05:38:53;;;;;;;0.70;0.60;;;0.50;99.90;;;;;;4070353;29;20488;-56
2021/01/24 05:40:55;;;;;;;0.70;0.70;;;0.50;99.90;;;;;;4073289;29;20472;-56
2021/01/24 05:43:00;;;;;;;1.97;0.93;;;0.50;99.90;;;;;;4071636;29;20587;-57
2021/01/24 05:45:08;;;;;;;1.00;0.70;;;0.50;99.90;;;;;;4071113;29;20957;-56
2021/01/24 05:47:11;;;;;;;0.70;0.70;;;0.50;99.90;;;;;;4071645;29;20469;-56
2021/01/24 05:49:14;;;;;;;1.03;0.70;;;0.50;99.90;;;;;;4070503;29;21094;-56
2021/01/24 05:51:16;;;;;;;0.80;0.70;;;0.50;99.90;;;;;;4072303;29;20485;-56
2021/01/24 05:53:18;;;;;;;0.70;0.70;;;0.50;99.90;;;;;;4072521;29;21526;-56
2021/01/24 05:55:30;;;;;;;0.60;0.60;;;0.50;99.90;;;;;;4069922;29;20486;-56
2021/01/24 05:57:34;;;;;;;0.60;0.60;;;0.50;99.90;;;;;;4074659;29;20513;-56
2021/01/24 05:59:52;;;;;;;0.73;0.73;;;0.50;99.90;;;;;;4074939;29;20472;-56
2021/01/24 06:01:54;;;;;;;0.80;0.77;;;0.50;99.90;;;;;;4073248;29;20521;-54
2021/01/24 06:03:58;;;;;;;0.63;0.63;;;0.50;99.90;;;;;;4073273;29;20507;-54
2021/01/24 06:05:59;;;;;;;1.00;0.80;;;0.50;99.90;;;;;;4072696;29;20984;-54
2021/01/24 06:08:00;;;;;;;1.80;0.80;;;0.50;99.90;;;;;;4072021;29;20478;-55
2021/01/24 06:10:02;;;;;;;1.23;0.70;;;0.50;99.90;;;;;;4072979;29;20471;-55
2021/01/24 06:12:07;;;;;;;0.87;0.80;;;0.50;99.90;;;;;;4072915;29;20544;-55
2021/01/24 06:14:09;;;;;;;0.70;0.70;;;0.50;99.90;;;;;;4073293;29;20476;-54
2021/01/24 06:16:13;;;;;;;0.57;0.57;;;0.50;99.90;;;;;;4071116;29;20469;-56
2021/01/24 06:18:15;;;;;;;0.77;0.77;;;0.50;99.90;;;;;;4071521;29;20490;-54
2021/01/24 06:20:21;;;;;;;0.50;0.50;;;0.50;99.90;;;;;;4071831;29;20568;-55
2021/01/24 06:22:28;;;;;;;0.40;0.40;;;0.50;99.90;;;;;;4071578;29;20487;-55
2021/01/24 06:24:38;;;;;;;0.30;0.30;;;0.50;99.90;;;;;;4071910;29;20474;-55
2021/01/24 06:26:41;;;;;;;0.50;0.50;;;0.50;99.90;;;;;;4074137;29;20487;-54
2021/01/24 06:28:45;;;;;;;0.60;0.60;;;0.50;99.90;;;;;;4074451;29;20471;-55
2021/01/24 06:30:47;;;;;;;0.50;0.50;;;0.50;99.90;;;;;;4075320;29;20471;-54
2021/01/24 06:32:49;;;;;;;0.40;0.40;;;0.50;99.90;;;;;;4073293;29;20474;-54
2021/01/24 06:34:50;;;;;;;0.63;0.50;;;0.50;99.90;;;;;;4074398;29;20474;-54
2021/01/24 06:37:09;;;;;;;0.50;0.50;;;0.50;99.90;;;;;;4073969;29;20478;-55
2021/01/24 06:39:11;;;;;;;0.40;0.40;;;0.50;99.90;;;;;;4074843;29;20492;-55
2021/01/24 06:41:13;;;;;;;0.40;0.40;;;0.50;99.90;;;;;;4075371;29;20951;-55
2021/01/24 06:43:30;;;;;;;0.40;0.40;;;0.50;99.90;;;;;;4074364;29;21211;-55
2021/01/24 06:45:42;;;;;;;0.60;0.50;;;0.50;99.90;;;;;;4075604;29;20461;-55
2021/01/24 06:47:44;;;;;;;0.40;0.40;;;0.50;99.90;;;;;;4074352;29;20473;-55
2021/01/24 06:49:45;;;;;;;0.47;0.47;;;0.50;99.90;;;;;;4074696;29;20506;-55
2021/01/24 06:51:47;;;;;;;0.37;0.37;;;0.50;99.90;;;;;;4073217;29;20510;-55
2021/01/24 06:53:49;;;;;;;0.73;0.50;;;0.50;99.90;;;;;;4075779;29;20953;-55
2021/01/24 06:55:55;;;;;;;0.90;0.60;;;0.50;99.90;;;;;;4074172;29;20485;-54
2021/01/24 06:57:56;;;;;;;0.77;0.50;;;0.50;99.90;;;;;;4072994;29;20478;-54
2021/01/24 07:00:16;;;;;;;0.47;0.43;;;0.50;99.90;;;;;;4074058;29;20481;-54
2021/01/24 07:02:26;;;;;;;0.40;0.40;;;0.50;99.90;;;;;;4075614;29;20470;-55
2021/01/24 07:04:31;;;;;;;0.90;0.70;;;0.50;99.90;;;;;;4072649;29;20466;-55
2021/01/24 07:06:33;;;;;;;0.70;0.57;;;0.50;99.90;;;;;;4074260;29;21013;-55
2021/01/24 07:08:35;;;;;;;0.93;0.53;;;0.50;99.90;;;;;;4074008;29;20482;-55
2021/01/24 07:10:44;;;;;;;3.03;0.50;;;0.50;99.90;;;;;;4073715;29;20478;-55
2021/01/24 07:12:46;;;;;;;0.47;0.47;;;0.50;99.90;;;;;;4073021;29;20475;-55
2021/01/24 07:14:48;;;;;;;0.30;0.30;;;0.50;99.90;;;;;;4074476;29;20478;-55
2021/01/24 07:16:50;;;;;;;0.40;0.40;;;0.50;99.90;;;;;;4074101;29;20478;-55
2021/01/24 07:18:52;;;;;;;0.30;0.30;;;0.50;99.90;;;;;;4073419;29;20478;-55
2021/01/24 07:20:54;;;;;;;0.40;0.40;;;0.50;99.90;;;;;;4074448;29;20482;-55
2021/01/24 07:22:56;;;;;;;0.40;0.40;;;0.40;99.90;;;;;;4073064;29;20494;-56
2021/01/24 07:24:57;;;;;;;0.40;0.40;;;0.40;99.90;;;;;;4072789;29;20533;-55
2021/01/24 07:27:00;;;;;;;0.47;0.40;;;0.50;99.90;;;;;;4075033;29;20572;-55
2021/01/24 07:29:02;;;;;;;0.37;0.37;;;0.50;99.90;;;;;;4073536;29;20472;-62
2021/01/24 07:31:05;;;;;;;0.40;0.37;;;0.50;99.90;;;;;;4074379;29;21022;-55
2021/01/24 07:33:07;;;;;;;0.53;0.40;;;0.50;99.90;;;;;;4074288;29;20478;-55
2021/01/24 07:35:11;;;;;;;0.37;0.37;;;0.50;99.90;;;;;;4072590;29;20479;-55
2021/01/24 07:37:14;;;;;;;0.43;0.37;;;0.50;99.90;;;;;;4072688;29;20479;-55
2021/01/24 07:39:15;;;;;;;0.30;0.30;;;0.50;99.90;;;;;;4074525;29;20469;-61
2021/01/24 07:41:19;;;;;;;0.30;0.30;;;0.50;99.90;;;;;;4075379;29;20474;-56
2021/01/24 07:43:22;;;;;;;0.20;0.20;;;0.50;99.90;;;;;;4075414;29;20494;-55
2021/01/24 07:45:23;;;;;;;0.30;0.30;;;0.50;99.90;;;;;;4072542;29;20474;-55
2021/01/24 07:47:25;;;;;;;0.30;0.30;;;0.50;99.90;;;;;;4075629;29;20471;-55
2021/01/24 07:49:26;;;;;;;0.20;0.20;;;0.50;99.90;;;;;;4071837;29;20475;-54
2021/01/24 07:51:28;;;;;;;0.40;0.40;;;0.50;99.90;;;;;;4074242;29;20530;-54
2021/01/24 07:53:29;;;;;;;0.30;0.30;;;0.50;99.90;;;;;;4073078;29;20487;-54
2021/01/24 07:55:31;;;;;;;0.30;0.30;;;0.50;99.90;;;;;;4074997;29;20473;-55
2021/01/24 07:57:32;;;;;;;0.40;0.40;;;0.50;99.90;;;;;;4073323;29;20475;-54
2021/01/24 07:59:35;;;;;;;0.30;0.30;;;0.50;99.90;;;;;;4074184;29;20471;-54
2021/01/24 08:01:37;;;;;;;0.77;0.50;;;0.50;99.90;;;;;;4073080;29;20494;-55
2021/01/24 08:03:38;;;;;;;0.47;0.40;;;0.50;99.90;;;;;;4073487;29;20494;-55
2021/01/24 08:05:39;;;;;;;2.27;0.40;;;0.50;99.90;;;;;;4071563;29;20513;-55
2021/01/24 08:07:41;;;;;;;0.50;0.50;;;0.60;99.90;;;;;;4074270;29;20475;-55
2021/01/24 08:09:42;;;;;;;0.30;0.30;;;0.60;99.90;;;;;;4074807;29;20485;-54
2021/01/24 08:11:44;;;;;;;0.30;0.30;;;0.60;99.90;;;;;;4073583;29;20548;-54
2021/01/24 08:13:47;;;;;;;0.80;0.50;;;0.60;99.90;;;;;;4075126;29;20474;-54
2021/01/24 08:15:51;;;;;;;0.40;0.40;;;0.60;99.90;;;;;;4071817;29;20538;-56
2021/01/24 08:17:53;;;;;;;0.40;0.40;;;0.60;99.90;;;;;;4073255;29;21073;-55
2021/01/24 08:19:56;;;;;;;0.40;0.40;;;0.60;99.90;;;;;;4072707;29;20478;-55
2021/01/24 08:21:57;;;;;;;0.40;0.40;;;0.60;99.90;;;;;;4073610;29;20487;-55
2021/01/24 08:24:00;;;;;;;0.60;0.60;;;0.60;99.90;;;;;;4072394;29;20637;-55
2021/01/24 08:26:05;;;;;;;0.40;0.40;;;0.60;99.90;;;;;;4075404;29;20489;-55
2021/01/24 08:28:08;;;;;;;0.50;0.50;;;0.70;99.90;;;;;;4071151;29;20474;-55
2021/01/24 08:30:11;;;;;;;0.50;0.40;;;0.70;99.90;;;;;;4073554;29;20474;-55
2021/01/24 08:32:15;;;;;;;2.07;0.63;;;0.70;99.90;;;;;;4073355;29;22456;-55
2021/01/24 08:34:17;;;;;;;0.93;0.50;;;0.70;99.90;;;;;;4072204;29;20485;-56
2021/01/24 08:36:19;;;;;;;0.97;0.73;;;0.70;99.90;;;;;;4074985;29;21205;-56
2021/01/24 08:38:21;;;;;;;0.50;0.50;;;0.60;99.90;;;;;;4073997;29;20473;-55
2021/01/24 08:40:30;;;;;;;0.97;0.63;;;0.60;99.90;;;;;;4072905;29;20486;-55
2021/01/24 08:42:48;;;;;;;1.00;0.60;;;0.60;99.90;;;;;;4071003;29;20930;-54
2021/01/24 08:44:59;;;;;;;1.23;0.70;;;0.60;99.90;;;;;;4071880;29;20483;-55
2021/01/24 08:47:05;;;;;;;1.10;0.80;;;0.60;99.90;;;;;;4073331;29;22457;-55
2021/01/24 08:49:09;;;;;;;0.87;0.70;;;0.60;99.90;;;;;;4072155;29;21961;-55
2021/01/24 08:51:10;;;;;;;0.90;0.67;;;0.60;99.90;;;;;;4072924;29;20963;-55
2021/01/24 08:53:12;;;;;;;0.60;0.60;;;0.70;99.90;;;;;;4073080;29;20459;-55
2021/01/24 08:55:13;;;;;;;0.60;0.50;;;0.70;99.90;;;;;;4072337;29;20550;-55
2021/01/24 08:57:16;;;;;;;0.57;0.57;;;0.70;99.90;;;;;;4072852;29;20497;-55
2021/01/24 08:59:25;;;;;;;0.87;0.70;;;0.70;99.90;;;;;;4075222;29;20477;-55
2021/01/24 09:01:26;;;;;;;0.60;0.60;;;0.70;99.90;;;;;;4071518;29;20491;-55
2021/01/24 09:03:27;;;;;;;0.87;0.57;;;0.70;99.90;;;;;;4074517;29;20569;-53
2021/01/24 09:05:33;;;;;;;0.73;0.60;;;0.70;99.90;;;;;;4071819;29;20512;-55
2021/01/24 09:07:38;;;;;;;1.17;0.77;;;0.70;99.90;;;;;;4071538;29;21290;-55
2021/01/24 09:09:42;;;;;;;0.70;0.70;;;0.80;99.90;;;;;;4071734;29;20478;-57
2021/01/24 09:11:43;;;;;;;0.80;0.80;;;0.70;99.90;;;;;;4073851;29;20489;-58
2021/01/24 09:13:45;;;;;;;1.10;0.80;;;0.70;99.90;;;;;;4072705;29;20479;-58
2021/01/24 09:15:46;;;;;;;0.80;0.67;;;0.80;99.90;;;;;;4072618;29;21223;-58
2021/01/24 09:17:48;;;;;;;1.03;0.70;;;0.80;99.90;;;;;;4072409;29;20549;-58
2021/01/24 09:19:49;;;;;;;1.00;0.80;;;0.90;99.90;;;;;;4073328;29;20485;-59
2021/01/24 09:21:52;;;;;;;0.77;0.67;;;1.00;99.90;;;;;;4072729;29;20478;-58
2021/01/24 09:23:53;;;;;;;0.70;0.70;;;0.90;99.90;;;;;;4071112;29;21224;-58
2021/01/24 09:25:55;;;;;;;1.17;0.80;;;1.00;99.90;;;;;;4073089;29;20471;-58
2021/01/24 09:27:56;;;;;;;1.13;0.97;;;1.00;99.90;;;;;;4071968;29;21250;-59
2021/01/24 09:29:57;;;;;;;1.00;0.90;;;0.90;99.90;;;;;;4072114;29;20479;-58
2021/01/24 09:31:59;;;;;;;1.50;0.90;;;1.00;99.90;;;;;;4071081;29;20492;-58
2021/01/24 09:34:00;;;;;;;1.20;0.90;;;1.00;99.90;;;;;;4070171;29;20482;-58
2021/01/24 09:36:01;;;;;;;1.77;1.00;;;1.10;99.90;;;;;;4071724;29;20478;-59
2021/01/24 09:38:04;;;;;;;1.97;1.00;;;1.10;99.90;;;;;;4071746;29;20482;-58
2021/01/24 09:40:06;;;;;;;1.27;0.97;;;1.10;99.90;;;;;;4072514;29;21254;-58
2021/01/24 09:42:08;;;;;;;1.53;1.00;;;1.10;99.90;;;;;;4071292;29;20477;-58
2021/01/24 09:44:10;;;;;;;1.57;1.00;;;1.20;99.90;;;;;;4071297;29;20506;-58
2021/01/24 09:46:12;;;;;;;1.47;1.00;;;1.20;99.90;;;;;;4071607;29;20482;-58
2021/01/24 09:48:15;;;;;;;2.07;1.10;;;1.30;99.90;;;;;;4071331;29;20547;-58
2021/01/24 09:50:17;;;;;;;1.93;1.30;;;1.30;99.90;;;;;;4072371;29;20622;-58
2021/01/24 09:52:18;;;;;;;2.57;1.40;;;1.30;99.90;;;;;;4071364;29;20954;-58
2021/01/24 09:54:20;;;;;;;1.53;1.07;;;1.30;99.90;;;;;;4072330;29;20469;-58
2021/01/24 09:56:22;;;;;;;2.10;1.30;;;1.30;99.90;;;;;;4070959;29;20471;-58
2021/01/24 09:58:23;;;;;;;1.43;1.13;;;1.30;99.90;;;;;;4071910;29;20518;-59
2021/01/24 10:00:25;;;;;;;2.30;1.40;;;1.30;99.90;;;;;;4073225;29;20486;-58
2021/01/24 10:02:26;;;;;;;1.90;1.20;;;1.30;99.90;;;;;;4074424;29;20480;-59
2021/01/24 10:04:27;;;;;;;1.67;1.20;;;1.40;99.90;;;;;;4076111;29;20482;-59
2021/01/24 10:06:29;;;;;;;1.73;1.20;;;1.30;99.90;;;;;;4075227;29;20989;-59
2021/01/24 10:08:29;;;;;;;1.20;1.07;;;1.40;99.90;;;;;;4076504;29;20470;-59
2021/01/24 10:10:32;;;;;;;1.47;1.10;;;1.40;99.90;;;;;;4074451;29;20602;-58
2021/01/24 10:12:34;;;;;;;3.47;1.20;;;1.50;99.90;;;;;;4074425;29;20649;-59
2021/01/24 10:14:35;;;;;;;3.60;1.30;;;1.50;99.90;;;;;;4075621;29;20845;-59
2021/01/24 10:16:36;;;;;;;2.30;1.43;;;1.50;99.90;;;;;;4074922;29;20486;-58
2021/01/24 10:18:38;;;;;;;1.53;1.17;;;1.50;99.90;;;;;;4075165;29;20495;-59
2021/01/24 10:20:39;;;;;;;3.80;1.53;;;1.60;99.90;;;;;;4075163;29;21263;-58
2021/01/24 10:22:40;;;;;;;2.77;1.60;;;1.60;99.90;;;;;;4073869;29;20476;-59
2021/01/24 10:24:41;;;;;;;2.20;1.40;;;1.70;99.90;;;;;;4074469;29;20498;-58
2021/01/24 10:26:44;;;;;;;3.23;1.80;;;1.70;99.90;;;;;;4076492;29;20626;-58
2021/01/24 10:28:45;;;;;;;1.87;1.60;;;1.70;99.90;;;;;;4074443;29;20513;-58
2021/01/24 10:30:47;;;;;;;4.60;2.00;;;1.80;99.90;;;;;;4074228;29;20483;-58
2021/01/24 10:32:48;;;;;;;3.53;1.90;;;1.80;99.90;;;;;;4074638;29;20483;-57
2021/01/24 10:34:49;;;;;;;3.13;1.90;;;1.80;99.90;;;;;;4075898;29;21007;-58
2021/01/24 10:36:51;;;;;;;2.47;1.93;;;1.80;99.90;;;;;;4075770;29;20475;-57
2021/01/24 10:38:52;;;;;;;3.20;1.97;;;1.80;99.90;;;;;;4073213;29;20483;-57
2021/01/24 10:40:53;;;;;;;5.20;2.07;;;1.80;99.90;;;;;;4076390;29;20487;-57
2021/01/24 10:42:56;;;;;;;3.00;2.20;;;1.80;99.90;;;;;;4076235;29;21515;-57
2021/01/24 10:44:58;;;;;;;3.73;2.07;;;1.80;99.90;;;;;;4074415;29;20470;-57